LEPAEDLV

Guest
Details From LEPA - Palma De Mallorca
To EDLV - Niederrhein
Flight Number -
Tags Generated
Created
Modified
Stats Distance 738 nm / 1,367 km
Max Altitude 0 ft / 0 m
Waypoints 5
Social Downloads 3
Likes 0
Share VATSIM

Download

Looking for another format? Having issues loading an existing format? Contact us
Advertisement - Login to hide

Notes

Generated

Route

LEPA MEIZE ALARO SOPVI EDLV

ID Type Via Altitude Latitude Longitude Leg Dist Tot Dist Heading (true) Name
O LEPA APT - 0 ft / 0 m 39.54873˚ 2.71867˚ - 0 nm - -
MEIZE FIX - 0 ft / 0 m 43.44922˚ 3.62828˚ 237 nm 237 nm 10° / 10° -
ALARO FIX - 0 ft / 0 m 47.49644˚ 4.74903˚ 247 nm 485 nm 11° / 11° -
SOPVI FIX - 0 ft / 0 m 51.25000˚ 5.90167˚ 229 nm 715 nm 11° / 12° -
O EDLV APT - 0 ft / 0 m 51.60284˚ 6.12454˚ 22 nm 738 nm 21° / 22° -

Altitude Profile

Advertisement - Login to hide

Weather


0- 5 10 15 20 25 30 35+ Temperature / ° C

Clouds and Precipitation
Forecast for 2018-05-26 12:00 UTC. Updated an hour ago

Ground ~20,000 ft ~40,000 ft Winds

LEPA

Details ICAO LEPA (PMI)
Name Palma De Mallorca
Region Spain
Timezone Europe/Madrid (UTC+2.0)
Stats Elevation 24 ft / 7 m (AMSL)
Location 39.552536° 2.734958°
Runways 3
Magnetic Variation 1.034° E

METAR

LEPA 261200Z 23010KT 200V270 9999 FEW020 24/19 Q1013 NOSIG

Decode

TAF

TAF LEPA 261100Z 2612/2712 22012KT 9999 FEW030 TX28/2612Z TN15/2706Z BECMG 2618/2621 06006KT BECMG 2709/2712 22012KT

Decode

Departure Runways

ID Width Length Bearing (true) Bearing (mag) Surface Threshold Offset Overrun Length
06C 148 ft / 45 m 8,181 ft / 2,494 m 58.47° 57.44° Asphalt 0 ft / 0 m 0 ft / 0 m
06L 148 ft / 45 m 10,716 ft / 3,266 m 58.46° 57.43° Asphalt 0 ft / 0 m 0 ft / 0 m
06R 148 ft / 45 m 9,832 ft / 2,997 m 58.48° 57.45° Asphalt 1,345 ft / 410 m 0 ft / 0 m
24C 148 ft / 45 m 8,181 ft / 2,494 m 238.49° 237.46° Asphalt 0 ft / 0 m 0 ft / 0 m
24L 148 ft / 45 m 9,832 ft / 2,997 m 238.50° 237.47° Asphalt 0 ft / 0 m 197 ft / 60 m
24R 148 ft / 45 m 10,716 ft / 3,266 m 238.48° 237.45° Asphalt 230 ft / 70 m 0 ft / 0 m

EDLV

Details ICAO EDLV (NRN)
Name NIEDERRHEIN
Region Germany - Civil
Timezone Europe/Berlin (UTC+2.0)
Stats Elevation 106 ft / 32 m (AMSL)
Location 51.602455° 6.142132°
Runways 1
Magnetic Variation 1.666° E

METAR

EDLV 261150Z 10006KT 360V170 CAVOK 29/15 Q1020

Decode

TAF

TAF EDLV 261100Z 2612/2712 08008KT CAVOK

Decode

Destination Runways

ID Width Length Bearing (true) Bearing (mag) Surface Threshold Offset Overrun Length
09 148 ft / 45 m 7,981 ft / 2,433 m 92.02° 90.35° Asphalt 0 ft / 0 m 902 ft / 275 m
27 148 ft / 45 m 7,981 ft / 2,433 m 272.05° 270.38° Asphalt 0 ft / 0 m 902 ft / 275 m

Approach Navaids

Runway Type Ident Frequency Range Bearing (true) Bearing (mag) Slope Elevation
27 Localiser INIW 110.70 MHz 18 nm / 33 km 271.93° 270.26° - 106 ft / 32 m (AMSL)
27 Glidescope INIW 110.70 MHz 10 nm / 19 km 272.04° 270.37° 3.00° 106 ft / 32 m (AMSL)